createdAt,value
2023-04-17T00:00:39.432Z,1.30
2023-04-17T00:03:06.665Z,1.00
2023-04-17T00:05:33.945Z,0.85
2023-04-17T00:08:01.211Z,1.00
2023-04-17T00:10:28.401Z,1.10
2023-04-17T00:12:55.622Z,1.00
2023-04-17T00:15:22.720Z,1.00
2023-04-17T00:17:49.929Z,1.05
2023-04-17T00:20:17.186Z,1.10
2023-04-17T00:22:44.348Z,1.08
2023-04-17T00:25:14.722Z,1.08
2023-04-17T00:27:42.868Z,0.90
2023-04-17T00:30:10.635Z,1.20
2023-04-17T00:32:37.867Z,0.88
2023-04-17T00:35:05.206Z,1.00
2023-04-17T00:37:32.362Z,1.05
2023-04-17T00:39:59.463Z,1.02
2023-04-17T00:42:27.018Z,0.80
2023-04-17T00:44:54.164Z,0.88
2023-04-17T00:47:22.518Z,1.33
2023-04-17T00:49:51.004Z,0.85
2023-04-17T00:52:20.800Z,0.98
2023-04-17T00:54:48.164Z,0.98
2023-04-17T00:57:15.415Z,0.88
2023-04-17T00:59:42.651Z,1.05
2023-04-17T01:02:09.993Z,1.00
2023-04-17T01:04:37.341Z,0.95
2023-04-17T01:07:04.518Z,1.00
2023-04-17T01:09:31.905Z,1.00
2023-04-17T01:12:17.570Z,1.10
2023-04-17T01:14:45.126Z,1.02
2023-04-17T01:17:14.346Z,1.27
2023-04-17T01:19:41.888Z,1.10
2023-04-17T01:22:09.124Z,1.10
2023-04-17T01:24:36.912Z,1.20
2023-04-17T01:27:04.373Z,1.00
2023-04-17T01:29:31.556Z,1.30
2023-04-17T01:31:58.675Z,1.20
2023-04-17T01:34:25.797Z,1.00
2023-04-17T01:36:53.164Z,1.35
2023-04-17T01:39:20.525Z,1.75
2023-04-17T01:41:47.640Z,1.10
2023-04-17T01:44:14.740Z,1.48
2023-04-17T01:46:41.886Z,1.50
2023-04-17T01:49:09.153Z,1.95
2023-04-17T01:51:36.332Z,1.63
2023-04-17T01:54:03.539Z,1.40
2023-04-17T01:56:30.906Z,1.65
2023-04-17T01:58:58.107Z,1.45
2023-04-17T02:01:25.337Z,1.60
2023-04-17T02:03:52.718Z,1.63
2023-04-17T02:06:19.978Z,1.60
2023-04-17T02:08:47.101Z,1.52
2023-04-17T02:11:15.311Z,1.65
2023-04-17T02:13:42.465Z,1.73
2023-04-17T02:16:09.907Z,1.45
2023-04-17T02:18:37.615Z,1.65
2023-04-17T02:21:04.774Z,1.70
2023-04-17T02:23:31.901Z,1.85
2023-04-17T02:25:59.024Z,1.80
2023-04-17T02:28:26.236Z,1.90
2023-04-17T02:30:53.420Z,2.45
2023-04-17T02:33:21.430Z,2.60
2023-04-17T02:35:48.578Z,2.60
2023-04-17T02:38:15.690Z,2.80
2023-04-17T02:40:42.787Z,2.88
2023-04-17T02:43:09.944Z,2.65
2023-04-17T02:45:37.076Z,2.80
2023-04-17T02:48:04.281Z,2.90
2023-04-17T02:50:31.413Z,3.20
2023-04-17T02:52:58.558Z,3.30
2023-04-17T02:55:25.766Z,3.90
2023-04-17T02:57:52.896Z,3.40
2023-04-17T03:00:20.814Z,4.50
2023-04-17T03:02:48.161Z,4.80
2023-04-17T03:05:16.228Z,4.35
2023-04-17T03:07:43.388Z,4.43
2023-04-17T03:10:10.615Z,4.35
2023-04-17T03:12:37.903Z,4.97
2023-04-17T03:15:08.838Z,5.00
2023-04-17T03:17:36.244Z,5.13
2023-04-17T03:20:04.179Z,5.70
2023-04-17T03:22:31.272Z,5.45
2023-04-17T03:24:58.351Z,6.10
2023-04-17T03:27:25.517Z,5.82
2023-04-17T03:29:52.833Z,7.07
2023-04-17T03:32:19.986Z,7.68
2023-04-17T03:34:47.325Z,7.38
2023-04-17T03:37:14.465Z,8.02
2023-04-17T03:39:41.790Z,8.90
2023-04-17T03:42:11.997Z,8.40
2023-04-17T03:44:39.131Z,8.43
2023-04-17T03:47:06.253Z,9.52
2023-04-17T03:49:33.453Z,9.05
2023-04-17T03:52:00.648Z,8.85
2023-04-17T03:54:27.741Z,9.52
2023-04-17T03:56:54.872Z,9.35
2023-04-17T03:59:22.061Z,8.68
2023-04-17T04:01:49.179Z,9.77
2023-04-17T04:04:17.081Z,9.65
2023-04-17T04:06:45.030Z,9.45
2023-04-17T04:09:12.269Z,9.52
2023-04-17T04:11:39.510Z,9.88
2023-04-17T04:14:06.718Z,10.98
2023-04-17T04:16:33.874Z,9.63
2023-04-17T04:19:01.067Z,9.68
2023-04-17T04:21:28.192Z,10.10
2023-04-17T04:23:56.308Z,9.95
2023-04-17T04:26:24.410Z,10.07
2023-04-17T04:28:51.540Z,10.70
2023-04-17T04:31:19.326Z,9.82
2023-04-17T04:33:46.836Z,12.18
2023-04-17T04:36:14.078Z,11.02
2023-04-17T04:38:41.175Z,11.57
2023-04-17T04:41:10.594Z,6.07
2023-04-17T04:43:37.817Z,4.78
2023-04-17T04:46:05.023Z,5.10
2023-04-17T04:48:32.452Z,4.95
2023-04-17T04:50:59.623Z,5.03
2023-04-17T04:53:26.869Z,4.45
2023-04-17T04:55:53.978Z,5.20
2023-04-17T04:58:21.278Z,4.68
2023-04-17T05:00:48.412Z,4.68
2023-04-17T05:03:15.909Z,4.60
2023-04-17T05:05:44.261Z,4.38
2023-04-17T05:08:11.372Z,4.68
2023-04-17T05:10:38.529Z,4.82
2023-04-17T05:13:05.687Z,4.93
2023-04-17T05:15:32.819Z,5.25
2023-04-17T05:18:00.001Z,5.00
2023-04-17T05:20:27.208Z,6.25
2023-04-17T05:22:54.419Z,6.05
2023-04-17T05:25:22.578Z,6.18
2023-04-17T05:27:49.706Z,6.10
2023-04-17T05:30:17.030Z,6.07
2023-04-17T05:32:44.398Z,6.45
2023-04-17T05:35:11.567Z,7.05
2023-04-17T05:37:38.681Z,7.38
2023-04-17T05:40:07.116Z,6.13
2023-04-17T05:42:35.067Z,7.22
2023-04-17T05:45:02.277Z,6.47
2023-04-17T05:47:29.546Z,5.57
2023-04-17T05:49:59.998Z,5.78
2023-04-17T05:52:27.152Z,5.78
2023-04-17T05:54:54.254Z,5.72
2023-04-17T05:57:21.416Z,5.38
2023-04-17T05:59:49.276Z,6.28
2023-04-17T06:02:16.828Z,6.93
2023-04-17T06:04:44.653Z,6.70
2023-04-17T06:07:12.433Z,7.43
2023-04-17T06:09:40.786Z,7.22
2023-04-17T06:12:14.725Z,8.15
2023-04-17T06:14:41.865Z,8.05
2023-04-17T06:17:09.167Z,8.20
2023-04-17T06:19:36.468Z,8.27
2023-04-17T06:22:03.628Z,8.45
2023-04-17T06:24:30.725Z,8.07
2023-04-17T06:26:58.007Z,8.07
2023-04-17T06:29:25.366Z,7.57
2023-04-17T06:31:52.518Z,9.50
2023-04-17T06:34:19.661Z,8.65
2023-04-17T06:36:46.848Z,8.07
2023-04-17T06:39:14.112Z,7.63
2023-04-17T06:41:41.424Z,8.02
2023-04-17T06:44:08.593Z,8.20
2023-04-17T06:46:35.837Z,8.10
2023-04-17T06:49:03.061Z,7.22
2023-04-17T06:51:30.250Z,6.78
2023-04-17T06:53:57.424Z,6.88
2023-04-17T06:56:24.580Z,8.40
2023-04-17T06:58:52.092Z,6.90
2023-04-17T07:01:19.830Z,6.80
2023-04-17T07:03:47.248Z,6.68
2023-04-17T07:06:14.830Z,7.45
2023-04-17T07:08:42.010Z,7.47
2023-04-17T07:11:09.155Z,7.32
2023-04-17T07:13:36.377Z,6.30
2023-04-17T07:16:04.212Z,7.35
2023-04-17T07:18:31.447Z,7.15
2023-04-17T07:20:58.572Z,7.00
2023-04-17T07:23:25.808Z,7.57
2023-04-17T07:25:53.125Z,7.22
2023-04-17T07:28:20.255Z,7.47
2023-04-17T07:30:47.455Z,6.80
2023-04-17T07:33:14.595Z,7.75
2023-04-17T07:35:42.643Z,7.15
2023-04-17T07:38:09.821Z,8.07
2023-04-17T07:40:37.232Z,7.47
2023-04-17T07:43:04.830Z,8.18
2023-04-17T07:45:33.487Z,9.00
2023-04-17T07:48:00.664Z,8.25
2023-04-17T07:50:27.841Z,8.30
2023-04-17T07:52:54.983Z,7.28
2023-04-17T07:55:22.161Z,8.27
2023-04-17T07:57:51.603Z,8.63
2023-04-17T08:00:19.450Z,7.97
2023-04-17T08:02:46.806Z,7.32
2023-04-17T08:05:14.241Z,7.55
2023-04-17T08:07:42.456Z,7.72
2023-04-17T08:10:09.832Z,8.35
2023-04-17T08:12:37.153Z,7.50
2023-04-17T08:15:05.139Z,7.30
2023-04-17T08:17:34.688Z,8.48
2023-04-17T08:20:08.405Z,7.68
2023-04-17T08:22:39.218Z,8.07
2023-04-17T08:25:09.268Z,8.23
2023-04-17T08:27:40.536Z,7.65
2023-04-17T08:30:11.208Z,9.40
2023-04-17T08:32:43.493Z,8.43
2023-04-17T08:35:14.358Z,8.98
2023-04-17T08:37:42.451Z,8.20
2023-04-17T08:40:11.165Z,8.05
2023-04-17T08:42:39.171Z,8.38
2023-04-17T08:45:07.700Z,9.35
2023-04-17T08:47:35.039Z,8.98
2023-04-17T08:50:09.490Z,8.50
2023-04-17T08:52:54.755Z,9.50
2023-04-17T08:55:24.841Z,9.35
2023-04-17T08:57:55.230Z,8.57
2023-04-17T09:00:26.367Z,8.27
2023-04-17T09:02:54.683Z,9.55
2023-04-17T09:05:22.841Z,9.45
2023-04-17T09:07:51.821Z,9.63
2023-04-17T09:10:19.139Z,10.55
2023-04-17T09:13:00.073Z,11.32
2023-04-17T09:15:27.396Z,11.32
2023-04-17T09:17:54.739Z,12.00
2023-04-17T09:20:22.016Z,12.52
2023-04-17T09:22:49.258Z,12.10
2023-04-17T09:25:17.684Z,12.27
2023-04-17T09:27:46.303Z,12.55
2023-04-17T09:30:13.682Z,12.15
2023-04-17T09:32:41.038Z,12.25
2023-04-17T09:35:08.660Z,12.20
2023-04-17T09:37:55.508Z,11.88
2023-04-17T09:40:25.268Z,11.93
2023-04-17T09:42:55.675Z,12.55
2023-04-17T09:45:24.431Z,12.88
2023-04-17T09:47:57.448Z,11.60
2023-04-17T09:50:25.011Z,11.10
2023-04-17T09:52:53.023Z,11.90
2023-04-17T09:55:21.584Z,12.73
2023-04-17T09:57:53.748Z,11.98
2023-04-17T10:00:21.606Z,11.77
2023-04-17T10:02:51.963Z,12.65
2023-04-17T10:05:20.439Z,11.43
2023-04-17T10:07:48.017Z,11.75
2023-04-17T10:10:25.499Z,12.10
2023-04-17T10:12:54.142Z,11.68
2023-04-17T10:15:22.336Z,13.38
2023-04-17T10:17:49.985Z,13.05
2023-04-17T10:20:20.215Z,11.90
2023-04-17T10:22:54.296Z,13.32
2023-04-17T10:25:22.499Z,13.55
2023-04-17T10:27:51.053Z,12.32
2023-04-17T10:32:47.070Z,12.25
2023-04-17T10:35:17.766Z,12.23
2023-04-17T10:37:50.689Z,11.93
2023-04-17T10:40:31.300Z,12.98
2023-04-17T10:43:18.037Z,12.30
2023-04-17T10:45:57.429Z,13.02
2023-04-17T10:48:35.036Z,12.30
2023-04-17T10:51:21.401Z,11.95
2023-04-17T10:53:52.432Z,11.80
2023-04-17T10:56:21.152Z,11.40
2023-04-17T10:59:06.844Z,11.05
2023-04-17T11:01:49.359Z,11.55
2023-04-17T11:04:20.868Z,12.20
2023-04-17T11:06:48.352Z,12.85
2023-04-17T11:09:16.008Z,11.90
2023-04-17T11:11:45.214Z,12.52
2023-04-17T11:14:14.798Z,12.27
2023-04-17T11:16:43.080Z,12.95
2023-04-17T11:19:11.447Z,11.90
2023-04-17T11:21:54.895Z,12.85
2023-04-17T11:24:26.644Z,12.10
2023-04-17T11:26:54.093Z,13.18
2023-04-17T11:29:22.372Z,12.07
2023-04-17T11:31:51.236Z,12.23
2023-04-17T11:34:18.843Z,12.65
2023-04-17T11:37:12.224Z,12.00
2023-04-17T11:39:43.102Z,12.30
2023-04-17T11:42:10.411Z,12.82
2023-04-17T11:44:37.675Z,12.70
2023-04-17T11:47:05.873Z,11.43
2023-04-17T11:49:34.185Z,11.32
2023-04-17T11:52:02.132Z,12.05
2023-04-17T11:54:30.226Z,12.48
2023-04-17T11:57:13.851Z,12.93
2023-04-17T11:59:46.068Z,12.35
2023-04-17T12:02:13.266Z,11.63
2023-04-17T12:04:41.000Z,12.30
2023-04-17T12:07:09.089Z,12.00
2023-04-17T12:09:36.991Z,11.35
2023-04-17T12:12:08.117Z,11.20
2023-04-17T12:14:36.885Z,10.75
2023-04-17T12:17:04.026Z,12.00
2023-04-17T12:19:32.046Z,12.00
2023-04-17T12:21:59.617Z,10.90
2023-04-17T12:24:26.863Z,12.80
2023-04-17T12:26:54.479Z,10.60
2023-04-17T12:29:32.258Z,11.98
2023-04-17T12:32:04.136Z,10.90
2023-04-17T12:34:31.391Z,10.93
2023-04-17T12:36:58.520Z,11.18
2023-04-17T12:39:25.678Z,10.63
2023-04-17T12:41:52.826Z,11.98
2023-04-17T12:44:20.789Z,11.93
2023-04-17T12:46:48.800Z,11.10
2023-04-17T12:49:15.937Z,10.38
2023-04-17T12:51:43.041Z,10.48
2023-04-17T12:54:10.489Z,11.25
2023-04-17T12:56:37.727Z,10.77
2023-04-17T12:59:04.915Z,10.52
2023-04-17T13:01:32.109Z,10.45
2023-04-17T13:03:59.751Z,9.45
2023-04-17T13:06:28.475Z,9.45
2023-04-17T13:08:58.977Z,8.98
2023-04-17T13:11:26.588Z,9.05
2023-04-17T13:13:54.399Z,8.77
2023-04-17T13:16:22.320Z,8.02
2023-04-17T13:18:50.007Z,8.73
2023-04-17T13:21:20.417Z,8.40
2023-04-17T13:23:50.951Z,8.30
2023-04-17T13:26:20.692Z,8.52
2023-04-17T13:28:48.094Z,8.02
2023-04-17T13:31:18.275Z,8.27
2023-04-17T13:33:46.643Z,7.47
2023-04-17T13:36:14.551Z,7.68
2023-04-17T13:38:42.540Z,6.65
2023-04-17T13:41:10.508Z,7.60
2023-04-17T13:43:38.352Z,6.95
2023-04-17T13:46:07.167Z,7.50
2023-04-17T13:48:35.223Z,6.78
2023-04-17T13:51:03.121Z,6.70
2023-04-17T13:53:31.110Z,6.70
2023-04-17T13:55:58.833Z,6.43
2023-04-17T13:58:29.209Z,6.57
2023-04-17T14:00:56.991Z,6.78
2023-04-17T14:03:24.810Z,6.43
2023-04-17T14:05:52.539Z,6.68
2023-04-17T14:08:19.977Z,7.72
2023-04-17T14:10:47.879Z,6.57
2023-04-17T14:13:16.205Z,6.75
2023-04-17T14:15:44.109Z,5.47
2023-04-17T14:18:12.394Z,6.38
2023-04-17T14:20:40.265Z,6.28
2023-04-17T14:23:08.320Z,6.10
2023-04-17T14:25:36.077Z,6.05
2023-04-17T14:28:03.898Z,6.35
2023-04-17T14:30:31.704Z,6.70
2023-04-17T14:32:59.591Z,7.03
2023-04-17T14:35:27.310Z,6.75
2023-04-17T14:37:54.819Z,6.28
2023-04-17T14:40:22.344Z,6.40
2023-04-17T14:42:54.592Z,6.70
2023-04-17T14:45:23.409Z,6.50
2023-04-17T14:47:51.017Z,6.40
2023-04-17T14:50:18.537Z,7.60
2023-04-17T14:52:55.113Z,6.18
2023-04-17T14:55:25.850Z,6.78
2023-04-17T14:57:53.738Z,5.47
2023-04-17T15:00:21.096Z,4.47
2023-04-17T15:02:48.821Z,3.45
2023-04-17T15:05:18.819Z,4.22
2023-04-17T15:07:46.393Z,4.40
2023-04-17T15:10:13.907Z,3.95
2023-04-17T15:12:41.092Z,3.33
2023-04-17T15:15:08.628Z,4.32
2023-04-17T15:17:37.466Z,4.57
2023-04-17T15:20:05.517Z,5.10
2023-04-17T15:22:32.915Z,5.22
2023-04-17T15:25:00.053Z,5.07
2023-04-17T15:27:27.195Z,5.43
2023-04-17T15:29:54.345Z,5.15
2023-04-17T15:32:22.023Z,5.03
2023-04-17T15:34:49.286Z,5.10
2023-04-17T15:37:16.483Z,5.00
2023-04-17T15:39:43.916Z,4.07
2023-04-17T15:42:11.886Z,5.32
2023-04-17T15:44:39.061Z,5.25
2023-04-17T15:47:06.764Z,4.45
2023-04-17T15:49:34.115Z,4.93
2023-04-17T15:52:01.318Z,5.05
2023-04-17T15:54:28.556Z,6.13
2023-04-17T15:56:56.797Z,8.63
2023-04-17T15:59:24.121Z,6.32
2023-04-17T16:01:53.079Z,6.32
2023-04-17T16:04:20.568Z,5.72
2023-04-17T16:06:48.092Z,5.95
2023-04-17T16:09:19.461Z,14.00
2023-04-17T16:11:49.946Z,6.65
2023-04-17T16:14:17.107Z,6.40
2023-04-17T16:16:44.319Z,4.32
2023-04-17T16:19:12.148Z,4.38
2023-04-17T16:21:39.491Z,4.13
2023-04-17T16:24:06.715Z,4.07
2023-04-17T16:26:33.939Z,4.40
2023-04-17T16:29:01.139Z,3.88
2023-04-17T16:31:28.362Z,4.10
2023-04-17T16:33:56.013Z,3.92
2023-04-17T16:36:23.254Z,4.00
2023-04-17T16:38:50.403Z,4.22
2023-04-17T16:41:18.602Z,4.40
2023-04-17T16:43:46.201Z,4.90
2023-04-17T16:46:23.944Z,4.90
2023-04-17T16:48:52.066Z,5.22
2023-04-17T16:51:20.599Z,5.45
2023-04-17T16:53:48.469Z,13.05
2023-04-17T16:56:15.624Z,5.68
2023-04-17T16:58:43.137Z,5.47
2023-04-17T17:01:10.337Z,5.60
2023-04-17T17:03:37.981Z,5.55
2023-04-17T17:06:07.005Z,5.82
2023-04-17T17:08:34.166Z,6.63
2023-04-17T17:11:03.426Z,5.90
2023-04-17T17:13:30.547Z,5.88
2023-04-17T17:15:58.313Z,6.13
2023-04-17T17:18:25.551Z,6.53
2023-04-17T17:20:55.905Z,7.07
2023-04-17T17:23:23.172Z,6.10
2023-04-17T17:25:50.453Z,6.30
2023-04-17T17:28:17.581Z,6.20
2023-04-17T17:30:44.771Z,6.78
2023-04-17T17:33:12.179Z,5.78
2023-04-17T17:35:39.383Z,6.88
2023-04-17T17:38:06.485Z,5.85
2023-04-17T17:40:33.686Z,6.78
2023-04-17T17:43:01.293Z,6.75
2023-04-17T17:45:28.432Z,6.45
2023-04-17T17:47:55.723Z,6.60
2023-04-17T17:50:23.057Z,5.13
2023-04-17T17:52:50.218Z,4.90
2023-04-17T17:55:17.707Z,4.93
2023-04-17T17:57:49.325Z,5.18
2023-04-17T18:00:17.259Z,4.65
2023-04-17T18:02:44.751Z,4.78
2023-04-17T18:05:12.014Z,5.40
2023-04-17T18:07:40.928Z,4.82
2023-04-17T18:10:08.365Z,4.47
2023-04-17T18:12:35.623Z,4.70
2023-04-17T18:15:02.914Z,4.25
2023-04-17T18:17:30.136Z,5.50
2023-04-17T18:19:57.233Z,5.28
2023-04-17T18:22:25.243Z,4.97
2023-04-17T18:24:55.842Z,4.90
2023-04-17T18:27:23.213Z,5.88
2023-04-17T18:29:50.457Z,4.97
2023-04-17T18:32:19.030Z,5.38
2023-04-17T18:34:49.149Z,5.72
2023-04-17T18:37:18.109Z,5.00
2023-04-17T18:39:45.680Z,5.45
2023-04-17T18:42:12.780Z,5.60
2023-04-17T18:44:39.957Z,6.05
2023-04-17T18:47:07.119Z,5.93
2023-04-17T18:49:34.290Z,5.72
2023-04-17T18:52:01.407Z,5.45
2023-04-17T18:54:28.516Z,5.03
2023-04-17T18:56:56.444Z,6.40
2023-04-17T18:59:25.990Z,6.10
2023-04-17T19:01:53.507Z,5.80
2023-04-17T19:04:21.776Z,5.88
2023-04-17T19:06:48.909Z,5.70
2023-04-17T19:09:16.061Z,5.80
2023-04-17T19:11:43.358Z,6.28
2023-04-17T19:14:10.645Z,6.43
2023-04-17T19:16:38.024Z,6.63
2023-04-17T19:19:05.836Z,6.90
2023-04-17T19:21:33.054Z,7.05
2023-04-17T19:24:00.185Z,7.90
2023-04-17T19:26:27.354Z,7.50
2023-04-17T19:28:55.072Z,6.97
2023-04-17T19:31:22.342Z,6.20
2023-04-17T19:33:49.517Z,5.65
2023-04-17T19:36:16.619Z,5.53
2023-04-17T19:38:43.940Z,5.25
2023-04-17T19:41:17.283Z,5.18
2023-04-17T19:43:49.718Z,5.25
2023-04-17T19:46:17.344Z,4.80
2023-04-17T19:48:44.957Z,5.00
2023-04-17T19:51:12.751Z,5.07
2023-04-17T19:53:40.667Z,6.20
2023-04-17T19:56:08.885Z,5.65
2023-04-17T19:58:36.065Z,5.30
2023-04-17T20:01:03.597Z,6.10
2023-04-17T20:03:32.245Z,5.63
2023-04-17T20:06:00.383Z,6.70
2023-04-17T20:08:27.669Z,6.00
2023-04-17T20:10:54.860Z,5.82
2023-04-17T20:13:22.013Z,5.88
2023-04-17T20:15:49.130Z,6.43
2023-04-17T20:18:16.253Z,6.10
2023-04-17T20:20:43.343Z,6.25
2023-04-17T20:23:10.594Z,6.60
2023-04-17T20:25:37.786Z,7.40
2023-04-17T20:28:04.974Z,7.07
2023-04-17T20:30:32.151Z,6.38
2023-04-17T20:33:00.322Z,6.90
2023-04-17T20:35:27.578Z,6.40
2023-04-17T20:37:54.689Z,7.00
2023-04-17T20:40:21.904Z,7.88
2023-04-17T20:42:49.704Z,7.90
2023-04-17T20:45:16.873Z,8.18
2023-04-17T20:47:55.749Z,7.85
2023-04-17T20:50:23.443Z,8.20
2023-04-17T20:52:50.596Z,8.10
2023-04-17T20:55:21.116Z,7.70
2023-04-17T20:57:48.408Z,8.60
2023-04-17T21:00:16.179Z,9.23
2023-04-17T21:02:43.914Z,9.00
2023-04-17T21:05:11.536Z,8.75
2023-04-17T21:07:38.655Z,9.10
2023-04-17T21:10:06.209Z,9.27
2023-04-17T21:12:35.109Z,10.07
2023-04-17T21:15:02.344Z,10.07
2023-04-17T21:17:29.522Z,11.00
2023-04-17T21:19:56.707Z,10.43
2023-04-17T21:22:23.832Z,9.98
2023-04-17T21:24:50.933Z,11.07
2023-04-17T21:27:18.100Z,10.80
2023-04-17T21:29:45.189Z,10.65
2023-04-17T21:32:12.408Z,10.88
2023-04-17T21:34:39.795Z,11.05
2023-04-17T21:37:07.138Z,11.10
2023-04-17T21:39:34.263Z,10.13
2023-04-17T21:42:02.053Z,11.25
2023-04-17T21:44:29.308Z,10.00
2023-04-17T21:46:56.455Z,11.88
2023-04-17T21:49:23.995Z,11.05
2023-04-17T21:51:51.221Z,10.45
2023-04-17T21:54:18.444Z,11.13
2023-04-17T21:56:45.851Z,10.52
2023-04-17T21:59:13.016Z,10.98
2023-04-17T22:01:40.264Z,10.88
2023-04-17T22:04:07.489Z,9.95
2023-04-17T22:06:37.812Z,9.93
2023-04-17T22:09:05.168Z,9.95
2023-04-17T22:11:32.338Z,8.55
2023-04-17T22:13:59.496Z,7.25
2023-04-17T22:16:26.653Z,7.10
2023-04-17T22:18:54.280Z,7.25
2023-04-17T22:21:21.420Z,7.05
2023-04-17T22:23:48.583Z,6.95
2023-04-17T22:26:16.204Z,7.25
2023-04-17T22:28:43.308Z,6.82
2023-04-17T22:31:10.919Z,6.72
2023-04-17T22:33:38.097Z,6.05
2023-04-17T22:36:05.232Z,6.43
2023-04-17T22:38:32.441Z,6.18
2023-04-17T22:40:59.636Z,6.55
2023-04-17T22:43:27.087Z,6.43
2023-04-17T22:45:54.281Z,5.93
2023-04-17T22:48:24.516Z,6.18
2023-04-17T22:50:51.915Z,6.07
2023-04-17T22:53:19.031Z,5.03
2023-04-17T22:55:46.141Z,5.55
2023-04-17T22:58:13.282Z,6.25
2023-04-17T23:00:40.438Z,5.80
2023-04-17T23:03:07.755Z,6.47
2023-04-17T23:05:35.104Z,6.13
2023-04-17T23:08:02.244Z,5.75
2023-04-17T23:10:29.337Z,6.18
2023-04-17T23:12:56.490Z,6.15
2023-04-17T23:15:23.812Z,6.45
2023-04-17T23:17:51.000Z,6.72
2023-04-17T23:20:18.240Z,7.35
2023-04-17T23:22:45.487Z,7.18
2023-04-17T23:25:12.697Z,7.07
2023-04-17T23:27:39.799Z,6.38
2023-04-17T23:30:07.440Z,7.50
2023-04-17T23:32:34.769Z,8.07
2023-04-17T23:35:01.966Z,6.75
2023-04-17T23:37:29.117Z,7.43
2023-04-17T23:39:56.219Z,7.72
2023-04-17T23:42:23.380Z,7.72
2023-04-17T23:44:50.905Z,7.70
2023-04-17T23:47:18.021Z,8.13
2023-04-17T23:49:45.238Z,8.38
2023-04-17T23:52:12.319Z,8.60
2023-04-17T23:54:39.500Z,8.50
2023-04-17T23:57:06.582Z,8.45
2023-04-17T23:59:33.765Z,8.10
